sensor_id;sensor_type;location;lat;lon;timestamp;P1;durP1;ratioP1;P2;durP2;ratioP2
52978;SDS011;51106;53.186;6.598;2022-08-11T00:00:53;8.23;;;7.22;;
52978;SDS011;51106;53.186;6.598;2022-08-11T00:03:07;7.47;;;6.65;;
52978;SDS011;51106;53.186;6.598;2022-08-11T00:05:26;6.60;;;5.82;;
52978;SDS011;51106;53.186;6.598;2022-08-11T00:10:00;5.82;;;4.93;;
52978;SDS011;51106;53.186;6.598;2022-08-11T00:12:35;6.93;;;6.23;;
52978;SDS011;51106;53.186;6.598;2022-08-11T00:14:59;8.57;;;6.75;;
52978;SDS011;51106;53.186;6.598;2022-08-11T00:17:07;7.15;;;6.40;;
52978;SDS011;51106;53.186;6.598;2022-08-11T00:19:26;7.10;;;6.40;;
52978;SDS011;51106;53.186;6.598;2022-08-11T00:22:08;8.65;;;7.70;;
52978;SDS011;51106;53.186;6.598;2022-08-11T00:24:31;9.98;;;7.82;;
52978;SDS011;51106;53.186;6.598;2022-08-11T00:26:58;8.15;;;5.70;;
52978;SDS011;51106;53.186;6.598;2022-08-11T00:29:17;7.85;;;5.03;;
52978;SDS011;51106;53.186;6.598;2022-08-11T00:31:30;10.93;;;6.85;;
52978;SDS011;51106;53.186;6.598;2022-08-11T00:33:40;8.48;;;7.05;;
52978;SDS011;51106;53.186;6.598;2022-08-11T00:35:50;7.28;;;5.13;;
52978;SDS011;51106;53.186;6.598;2022-08-11T00:38:03;10.07;;;7.07;;
52978;SDS011;51106;53.186;6.598;2022-08-11T00:40:23;9.07;;;6.97;;
52978;SDS011;51106;53.186;6.598;2022-08-11T00:48:35;12.95;;;8.20;;
52978;SDS011;51106;53.186;6.598;2022-08-11T00:51:12;8.25;;;7.30;;
52978;SDS011;51106;53.186;6.598;2022-08-11T01:12:48;9.00;;;6.80;;
52978;SDS011;51106;53.186;6.598;2022-08-11T01:22:58;10.90;;;8.20;;
52978;SDS011;51106;53.186;6.598;2022-08-11T01:30:54;10.55;;;7.60;;
52978;SDS011;51106;53.186;6.598;2022-08-11T01:36:04;12.35;;;8.02;;
52978;SDS011;51106;53.186;6.598;2022-08-11T01:46:27;9.40;;;7.32;;
52978;SDS011;51106;53.186;6.598;2022-08-11T02:01:01;8.48;;;6.97;;
52978;SDS011;51106;53.186;6.598;2022-08-11T02:03:45;9.75;;;6.07;;
52978;SDS011;51106;53.186;6.598;2022-08-11T02:05:59;8.40;;;6.95;;
52978;SDS011;51106;53.186;6.598;2022-08-11T02:13:56;10.15;;;8.50;;
52978;SDS011;51106;53.186;6.598;2022-08-11T02:16:09;12.05;;;8.20;;
52978;SDS011;51106;53.186;6.598;2022-08-11T02:18:33;10.85;;;7.00;;
52978;SDS011;51106;53.186;6.598;2022-08-11T02:21:01;8.82;;;6.40;;
52978;SDS011;51106;53.186;6.598;2022-08-11T02:23:38;9.48;;;6.90;;
52978;SDS011;51106;53.186;6.598;2022-08-11T02:28:26;7.55;;;6.70;;
52978;SDS011;51106;53.186;6.598;2022-08-11T02:34:08;8.50;;;6.63;;
52978;SDS011;51106;53.186;6.598;2022-08-11T02:38:54;7.07;;;6.38;;
52978;SDS011;51106;53.186;6.598;2022-08-11T02:46:27;6.40;;;5.10;;
52978;SDS011;51106;53.186;6.598;2022-08-11T02:48:55;6.25;;;4.50;;
52978;SDS011;51106;53.186;6.598;2022-08-11T02:51:41;6.30;;;5.10;;
52978;SDS011;51106;53.186;6.598;2022-08-11T02:54:09;4.53;;;4.13;;
52978;SDS011;51106;53.186;6.598;2022-08-11T02:56:39;5.88;;;5.28;;
52978;SDS011;51106;53.186;6.598;2022-08-11T02:58:50;5.13;;;4.22;;
52978;SDS011;51106;53.186;6.598;2022-08-11T03:01:27;7.68;;;6.40;;
52978;SDS011;51106;53.186;6.598;2022-08-11T03:08:28;6.75;;;6.05;;
52978;SDS011;51106;53.186;6.598;2022-08-11T03:10:56;5.60;;;4.45;;
52978;SDS011;51106;53.186;6.598;2022-08-11T03:13:27;6.50;;;5.57;;
52978;SDS011;51106;53.186;6.598;2022-08-11T03:18:33;7.82;;;6.15;;
52978;SDS011;51106;53.186;6.598;2022-08-11T03:23:07;5.97;;;5.38;;
52978;SDS011;51106;53.186;6.598;2022-08-11T03:25:44;12.00;;;7.97;;
52978;SDS011;51106;53.186;6.598;2022-08-11T03:28:13;31.80;;;7.90;;
52978;SDS011;51106;53.186;6.598;2022-08-11T03:30:46;9.32;;;5.93;;
52978;SDS011;51106;53.186;6.598;2022-08-11T03:33:21;11.25;;;7.20;;
52978;SDS011;51106;53.186;6.598;2022-08-11T03:41:30;6.63;;;5.85;;
52978;SDS011;51106;53.186;6.598;2022-08-11T03:46:43;6.75;;;5.93;;
52978;SDS011;51106;53.186;6.598;2022-08-11T03:49:13;6.90;;;6.20;;
52978;SDS011;51106;53.186;6.598;2022-08-11T03:51:22;7.45;;;5.78;;
52978;SDS011;51106;53.186;6.598;2022-08-11T04:03:40;5.97;;;3.65;;
52978;SDS011;51106;53.186;6.598;2022-08-11T04:06:16;7.28;;;4.00;;
52978;SDS011;51106;53.186;6.598;2022-08-11T04:16:44;22.60;;;5.78;;
52978;SDS011;51106;53.186;6.598;2022-08-11T04:26:48;26.23;;;5.03;;
52978;SDS011;51106;53.186;6.598;2022-08-11T04:47:13;16.15;;;5.13;;
52978;SDS011;51106;53.186;6.598;2022-08-11T04:50:21;33.90;;;6.85;;
52978;SDS011;51106;53.186;6.598;2022-08-11T04:53:24;16.25;;;5.78;;
52978;SDS011;51106;53.186;6.598;2022-08-11T04:56:02;12.05;;;4.68;;
52978;SDS011;51106;53.186;6.598;2022-08-11T05:03:52;5.38;;;4.75;;
52978;SDS011;51106;53.186;6.598;2022-08-11T05:13:51;5.97;;;5.28;;
52978;SDS011;51106;53.186;6.598;2022-08-11T05:16:26;6.63;;;5.82;;
52978;SDS011;51106;53.186;6.598;2022-08-11T05:18:52;6.80;;;5.60;;
52978;SDS011;51106;53.186;6.598;2022-08-11T05:21:17;6.93;;;5.90;;
52978;SDS011;51106;53.186;6.598;2022-08-11T05:23:46;8.05;;;5.90;;
52978;SDS011;51106;53.186;6.598;2022-08-11T05:26:15;9.07;;;6.50;;
52978;SDS011;51106;53.186;6.598;2022-08-11T05:28:53;10.05;;;6.80;;
52978;SDS011;51106;53.186;6.598;2022-08-11T05:31:23;6.10;;;5.50;;
52978;SDS011;51106;53.186;6.598;2022-08-11T05:34:12;8.07;;;6.35;;
52978;SDS011;51106;53.186;6.598;2022-08-11T05:36:46;8.30;;;5.95;;
52978;SDS011;51106;53.186;6.598;2022-08-11T05:38:53;8.82;;;6.82;;
52978;SDS011;51106;53.186;6.598;2022-08-11T05:41:38;9.52;;;6.30;;
52978;SDS011;51106;53.186;6.598;2022-08-11T05:44:00;10.07;;;7.65;;
52978;SDS011;51106;53.186;6.598;2022-08-11T05:46:23;10.20;;;7.22;;
52978;SDS011;51106;53.186;6.598;2022-08-11T05:48:47;10.85;;;7.53;;
52978;SDS011;51106;53.186;6.598;2022-08-11T05:51:08;11.65;;;8.25;;
52978;SDS011;51106;53.186;6.598;2022-08-11T05:53:31;11.85;;;8.57;;
52978;SDS011;51106;53.186;6.598;2022-08-11T05:55:52;12.98;;;8.35;;
52978;SDS011;51106;53.186;6.598;2022-08-11T05:58:13;11.88;;;7.43;;
52978;SDS011;51106;53.186;6.598;2022-08-11T06:00:17;14.48;;;9.18;;
52978;SDS011;51106;53.186;6.598;2022-08-11T06:02:41;13.52;;;8.73;;
52978;SDS011;51106;53.186;6.598;2022-08-11T06:04:44;13.98;;;8.43;;
52978;SDS011;51106;53.186;6.598;2022-08-11T06:06:48;12.38;;;8.48;;
52978;SDS011;51106;53.186;6.598;2022-08-11T06:08:58;11.70;;;8.00;;
52978;SDS011;51106;53.186;6.598;2022-08-11T06:11:02;15.30;;;9.10;;
52978;SDS011;51106;53.186;6.598;2022-08-11T06:13:08;16.77;;;8.65;;
52978;SDS011;51106;53.186;6.598;2022-08-11T06:15:12;11.27;;;9.10;;
52978;SDS011;51106;53.186;6.598;2022-08-11T06:17:17;11.80;;;8.20;;
52978;SDS011;51106;53.186;6.598;2022-08-11T06:19:40;11.48;;;9.18;;
52978;SDS011;51106;53.186;6.598;2022-08-11T06:21:50;12.05;;;8.98;;
52978;SDS011;51106;53.186;6.598;2022-08-11T06:23:53;12.68;;;8.38;;
52978;SDS011;51106;53.186;6.598;2022-08-11T06:25:56;11.85;;;8.85;;
52978;SDS011;51106;53.186;6.598;2022-08-11T06:28:01;11.88;;;8.52;;
52978;SDS011;51106;53.186;6.598;2022-08-11T06:30:06;11.05;;;8.50;;
52978;SDS011;51106;53.186;6.598;2022-08-11T06:32:13;11.25;;;7.60;;
52978;SDS011;51106;53.186;6.598;2022-08-11T06:35:18;14.32;;;8.80;;
52978;SDS011;51106;53.186;6.598;2022-08-11T06:39:22;10.45;;;7.60;;
52978;SDS011;51106;53.186;6.598;2022-08-11T06:45:58;12.70;;;8.35;;
52978;SDS011;51106;53.186;6.598;2022-08-11T06:48:06;11.45;;;8.10;;
52978;SDS011;51106;53.186;6.598;2022-08-11T06:50:17;12.43;;;7.00;;
52978;SDS011;51106;53.186;6.598;2022-08-11T06:52:43;11.13;;;6.90;;
52978;SDS011;51106;53.186;6.598;2022-08-11T06:54:57;10.85;;;7.50;;
52978;SDS011;51106;53.186;6.598;2022-08-11T06:57:32;8.65;;;6.82;;
52978;SDS011;51106;53.186;6.598;2022-08-11T07:00:03;8.27;;;6.70;;
52978;SDS011;51106;53.186;6.598;2022-08-11T07:02:33;8.88;;;6.93;;
52978;SDS011;51106;53.186;6.598;2022-08-11T07:04:44;11.63;;;6.85;;
52978;SDS011;51106;53.186;6.598;2022-08-11T07:09:51;8.98;;;6.88;;
52978;SDS011;51106;53.186;6.598;2022-08-11T07:15:01;8.75;;;6.55;;
52978;SDS011;51106;53.186;6.598;2022-08-11T07:17:48;9.48;;;6.50;;
52978;SDS011;51106;53.186;6.598;2022-08-11T07:20:12;8.45;;;5.95;;
52978;SDS011;51106;53.186;6.598;2022-08-11T07:22:33;7.78;;;5.47;;
52978;SDS011;51106;53.186;6.598;2022-08-11T07:25:02;10.23;;;6.82;;
52978;SDS011;51106;53.186;6.598;2022-08-11T07:27:46;10.98;;;5.43;;
52978;SDS011;51106;53.186;6.598;2022-08-11T07:30:12;9.93;;;5.93;;
52978;SDS011;51106;53.186;6.598;2022-08-11T07:32:16;10.07;;;5.82;;
52978;SDS011;51106;53.186;6.598;2022-08-11T07:36:36;7.03;;;5.15;;
52978;SDS011;51106;53.186;6.598;2022-08-11T07:38:48;9.02;;;5.53;;
52978;SDS011;51106;53.186;6.598;2022-08-11T07:40:53;9.55;;;5.78;;
52978;SDS011;51106;53.186;6.598;2022-08-11T07:42:59;11.15;;;5.80;;
52978;SDS011;51106;53.186;6.598;2022-08-11T07:45:06;8.02;;;5.07;;
52978;SDS011;51106;53.186;6.598;2022-08-11T07:47:30;6.32;;;5.30;;
52978;SDS011;51106;53.186;6.598;2022-08-11T07:49:53;8.95;;;5.70;;
52978;SDS011;51106;53.186;6.598;2022-08-11T07:52:14;11.68;;;4.88;;
52978;SDS011;51106;53.186;6.598;2022-08-11T07:54:34;6.82;;;5.55;;
52978;SDS011;51106;53.186;6.598;2022-08-11T07:56:38;15.05;;;5.28;;
52978;SDS011;51106;53.186;6.598;2022-08-11T07:59:01;6.78;;;4.72;;
52978;SDS011;51106;53.186;6.598;2022-08-11T08:01:48;9.50;;;5.47;;
52978;SDS011;51106;53.186;6.598;2022-08-11T08:04:11;6.47;;;4.43;;
52978;SDS011;51106;53.186;6.598;2022-08-11T08:06:37;9.00;;;4.68;;
52978;SDS011;51106;53.186;6.598;2022-08-11T08:08:59;6.90;;;4.38;;
52978;SDS011;51106;53.186;6.598;2022-08-11T08:11:21;11.20;;;4.57;;
52978;SDS011;51106;53.186;6.598;2022-08-11T08:13:44;7.22;;;4.55;;
52978;SDS011;51106;53.186;6.598;2022-08-11T08:16:05;6.35;;;4.35;;
52978;SDS011;51106;53.186;6.598;2022-08-11T08:18:26;6.95;;;5.18;;
52978;SDS011;51106;53.186;6.598;2022-08-11T08:20:36;8.57;;;5.60;;
52978;SDS011;51106;53.186;6.598;2022-08-11T08:22:48;6.35;;;4.15;;
52978;SDS011;51106;53.186;6.598;2022-08-11T08:24:57;5.63;;;4.13;;
52978;SDS011;51106;53.186;6.598;2022-08-11T08:27:00;5.88;;;5.28;;
52978;SDS011;51106;53.186;6.598;2022-08-11T08:29:05;5.57;;;3.75;;
52978;SDS011;51106;53.186;6.598;2022-08-11T08:31:26;6.15;;;3.90;;
52978;SDS011;51106;53.186;6.598;2022-08-11T08:33:29;7.88;;;4.03;;
52978;SDS011;51106;53.186;6.598;2022-08-11T08:35:32;4.70;;;3.65;;
52978;SDS011;51106;53.186;6.598;2022-08-11T08:37:55;7.47;;;3.60;;
52978;SDS011;51106;53.186;6.598;2022-08-11T08:39:59;6.53;;;3.85;;
52978;SDS011;51106;53.186;6.598;2022-08-11T08:42:02;5.18;;;3.30;;
52978;SDS011;51106;53.186;6.598;2022-08-11T08:44:08;6.38;;;3.55;;
52978;SDS011;51106;53.186;6.598;2022-08-11T08:46:36;7.13;;;3.60;;
52978;SDS011;51106;53.186;6.598;2022-08-11T08:48:44;7.53;;;3.33;;
52978;SDS011;51106;53.186;6.598;2022-08-11T08:50:59;9.77;;;3.30;;
52978;SDS011;51106;53.186;6.598;2022-08-11T08:53:26;4.57;;;3.20;;
52978;SDS011;51106;53.186;6.598;2022-08-11T08:55:33;4.05;;;3.65;;
52978;SDS011;51106;53.186;6.598;2022-08-11T08:57:35;3.53;;;2.80;;
52978;SDS011;51106;53.186;6.598;2022-08-11T08:59:41;6.53;;;3.35;;
52978;SDS011;51106;53.186;6.598;2022-08-11T09:01:52;5.72;;;2.70;;
52978;SDS011;51106;53.186;6.598;2022-08-11T09:03:58;4.72;;;3.10;;
52978;SDS011;51106;53.186;6.598;2022-08-11T09:06:09;8.30;;;3.10;;
52978;SDS011;51106;53.186;6.598;2022-08-11T09:08:16;3.63;;;2.60;;
52978;SDS011;51106;53.186;6.598;2022-08-11T09:10:19;5.30;;;3.00;;
52978;SDS011;51106;53.186;6.598;2022-08-11T09:12:27;3.85;;;2.88;;
52978;SDS011;51106;53.186;6.598;2022-08-11T09:14:41;4.13;;;2.65;;
52978;SDS011;51106;53.186;6.598;2022-08-11T09:17:04;5.32;;;2.83;;
52978;SDS011;51106;53.186;6.598;2022-08-11T09:19:07;6.70;;;3.08;;
52978;SDS011;51106;53.186;6.598;2022-08-11T09:21:12;9.32;;;3.30;;
52978;SDS011;51106;53.186;6.598;2022-08-11T09:23:37;5.55;;;2.58;;
52978;SDS011;51106;53.186;6.598;2022-08-11T09:26:10;6.57;;;2.92;;
52978;SDS011;51106;53.186;6.598;2022-08-11T09:28:32;4.45;;;2.70;;
52978;SDS011;51106;53.186;6.598;2022-08-11T09:30:35;7.45;;;3.55;;
52978;SDS011;51106;53.186;6.598;2022-08-11T09:32:40;4.25;;;2.78;;
52978;SDS011;51106;53.186;6.598;2022-08-11T09:34:47;4.00;;;2.47;;
52978;SDS011;51106;53.186;6.598;2022-08-11T09:36:54;3.85;;;2.40;;
52978;SDS011;51106;53.186;6.598;2022-08-11T09:39:35;4.03;;;2.50;;
52978;SDS011;51106;53.186;6.598;2022-08-11T09:41:59;2.70;;;2.20;;
52978;SDS011;51106;53.186;6.598;2022-08-11T09:44:23;3.28;;;2.30;;
52978;SDS011;51106;53.186;6.598;2022-08-11T09:46:45;5.50;;;2.65;;
52978;SDS011;51106;53.186;6.598;2022-08-11T09:48:52;5.05;;;2.58;;
52978;SDS011;51106;53.186;6.598;2022-08-11T09:50:59;4.15;;;2.80;;
52978;SDS011;51106;53.186;6.598;2022-08-11T09:53:02;4.93;;;2.50;;
52978;SDS011;51106;53.186;6.598;2022-08-11T09:55:26;4.22;;;2.67;;
52978;SDS011;51106;53.186;6.598;2022-08-11T09:57:28;5.60;;;2.60;;
52978;SDS011;51106;53.186;6.598;2022-08-11T09:59:50;4.40;;;2.58;;
52978;SDS011;51106;53.186;6.598;2022-08-11T10:02:13;2.63;;;2.10;;
52978;SDS011;51106;53.186;6.598;2022-08-11T10:04:19;3.25;;;2.20;;
52978;SDS011;51106;53.186;6.598;2022-08-11T10:06:27;5.22;;;2.35;;
52978;SDS011;51106;53.186;6.598;2022-08-11T10:08:54;3.03;;;2.10;;
52978;SDS011;51106;53.186;6.598;2022-08-11T10:10:56;4.65;;;2.38;;
52978;SDS011;51106;53.186;6.598;2022-08-11T10:13:00;4.65;;;2.05;;
52978;SDS011;51106;53.186;6.598;2022-08-11T10:15:08;3.15;;;2.28;;
52978;SDS011;51106;53.186;6.598;2022-08-11T10:17:32;5.65;;;2.25;;
52978;SDS011;51106;53.186;6.598;2022-08-11T10:19:39;2.72;;;2.08;;
52978;SDS011;51106;53.186;6.598;2022-08-11T10:21:44;5.38;;;2.20;;
52978;SDS011;51106;53.186;6.598;2022-08-11T10:24:10;5.47;;;2.25;;
52978;SDS011;51106;53.186;6.598;2022-08-11T10:26:31;6.40;;;2.47;;
52978;SDS011;51106;53.186;6.598;2022-08-11T10:28:54;5.05;;;2.30;;
52978;SDS011;51106;53.186;6.598;2022-08-11T10:31:14;4.75;;;2.08;;
52978;SDS011;51106;53.186;6.598;2022-08-11T10:33:55;3.30;;;2.00;;
52978;SDS011;51106;53.186;6.598;2022-08-11T10:36:02;5.07;;;2.30;;
52978;SDS011;51106;53.186;6.598;2022-08-11T10:38:17;4.65;;;2.00;;
52978;SDS011;51106;53.186;6.598;2022-08-11T10:40:20;3.67;;;1.93;;
52978;SDS011;51106;53.186;6.598;2022-08-11T10:42:24;3.92;;;2.25;;
52978;SDS011;51106;53.186;6.598;2022-08-11T10:44:58;3.53;;;2.30;;
52978;SDS011;51106;53.186;6.598;2022-08-11T10:47:02;4.00;;;1.90;;
52978;SDS011;51106;53.186;6.598;2022-08-11T10:49:24;3.25;;;2.38;;
52978;SDS011;51106;53.186;6.598;2022-08-11T10:51:28;2.35;;;2.00;;
52978;SDS011;51106;53.186;6.598;2022-08-11T10:53:55;4.03;;;2.10;;
52978;SDS011;51106;53.186;6.598;2022-08-11T10:56:17;3.50;;;2.15;;
52978;SDS011;51106;53.186;6.598;2022-08-11T10:58:38;5.68;;;2.08;;
52978;SDS011;51106;53.186;6.598;2022-08-11T11:00:51;5.82;;;2.05;;
52978;SDS011;51106;53.186;6.598;2022-08-11T11:02:57;4.03;;;2.15;;
52978;SDS011;51106;53.186;6.598;2022-08-11T11:05:25;6.75;;;2.20;;
52978;SDS011;51106;53.186;6.598;2022-08-11T11:07:37;3.67;;;2.00;;
52978;SDS011;51106;53.186;6.598;2022-08-11T11:09:50;9.73;;;2.47;;
52978;SDS011;51106;53.186;6.598;2022-08-11T11:11:59;6.15;;;2.30;;
52978;SDS011;51106;53.186;6.598;2022-08-11T11:14:27;5.00;;;2.47;;
52978;SDS011;51106;53.186;6.598;2022-08-11T11:16:59;2.90;;;2.50;;
52978;SDS011;51106;53.186;6.598;2022-08-11T11:19:22;5.72;;;2.50;;
52978;SDS011;51106;53.186;6.598;2022-08-11T11:21:26;3.45;;;2.42;;
52978;SDS011;51106;53.186;6.598;2022-08-11T11:31:12;6.40;;;2.30;;
52978;SDS011;51106;53.186;6.598;2022-08-11T11:38:40;4.18;;;2.20;;
52978;SDS011;51106;53.186;6.598;2022-08-11T11:40:42;4.20;;;2.20;;
52978;SDS011;51106;53.186;6.598;2022-08-11T11:42:44;5.38;;;2.35;;
52978;SDS011;51106;53.186;6.598;2022-08-11T11:44:49;2.40;;;1.90;;
52978;SDS011;51106;53.186;6.598;2022-08-11T11:46:56;4.75;;;2.60;;
52978;SDS011;51106;53.186;6.598;2022-08-11T11:49:00;3.63;;;1.92;;
52978;SDS011;51106;53.186;6.598;2022-08-11T11:51:17;2.83;;;1.80;;
52978;SDS011;51106;53.186;6.598;2022-08-11T11:55:23;6.38;;;2.30;;
52978;SDS011;51106;53.186;6.598;2022-08-11T11:57:27;2.97;;;2.13;;
52978;SDS011;51106;53.186;6.598;2022-08-11T12:00:03;2.67;;;1.98;;
52978;SDS011;51106;53.186;6.598;2022-08-11T12:02:34;2.20;;;2.00;;
52978;SDS011;51106;53.186;6.598;2022-08-11T12:04:39;2.38;;;2.00;;
52978;SDS011;51106;53.186;6.598;2022-08-11T12:06:43;2.65;;;2.00;;
52978;SDS011;51106;53.186;6.598;2022-08-11T12:08:49;7.07;;;2.63;;
52978;SDS011;51106;53.186;6.598;2022-08-11T12:13:16;4.28;;;2.30;;
52978;SDS011;51106;53.186;6.598;2022-08-11T12:15:37;4.30;;;2.30;;
52978;SDS011;51106;53.186;6.598;2022-08-11T12:18:00;6.68;;;2.10;;
52978;SDS011;51106;53.186;6.598;2022-08-11T12:20:03;3.30;;;1.92;;
52978;SDS011;51106;53.186;6.598;2022-08-11T12:22:26;5.30;;;2.38;;
52978;SDS011;51106;53.186;6.598;2022-08-11T12:24:48;3.92;;;2.47;;
52978;SDS011;51106;53.186;6.598;2022-08-11T12:27:09;4.05;;;2.15;;
52978;SDS011;51106;53.186;6.598;2022-08-11T12:29:25;5.70;;;2.10;;
52978;SDS011;51106;53.186;6.598;2022-08-11T12:31:28;7.80;;;2.40;;
52978;SDS011;51106;53.186;6.598;2022-08-11T12:33:32;3.65;;;2.10;;
52978;SDS011;51106;53.186;6.598;2022-08-11T12:35:39;6.32;;;2.50;;
52978;SDS011;51106;53.186;6.598;2022-08-11T12:38:01;3.65;;;2.40;;
52978;SDS011;51106;53.186;6.598;2022-08-11T12:40:17;4.57;;;2.38;;
52978;SDS011;51106;53.186;6.598;2022-08-11T12:43:03;3.50;;;2.30;;
52978;SDS011;51106;53.186;6.598;2022-08-11T12:45:39;4.30;;;2.35;;
52978;SDS011;51106;53.186;6.598;2022-08-11T12:47:45;3.42;;;2.22;;
52978;SDS011;51106;53.186;6.598;2022-08-11T12:50:28;6.65;;;2.40;;
52978;SDS011;51106;53.186;6.598;2022-08-11T12:52:49;6.45;;;2.38;;
52978;SDS011;51106;53.186;6.598;2022-08-11T12:57:01;6.78;;;2.20;;
52978;SDS011;51106;53.186;6.598;2022-08-11T12:59:38;2.20;;;1.90;;
52978;SDS011;51106;53.186;6.598;2022-08-11T13:01:59;5.72;;;2.20;;
52978;SDS011;51106;53.186;6.598;2022-08-11T13:04:24;4.45;;;2.10;;
52978;SDS011;51106;53.186;6.598;2022-08-11T13:06:50;18.17;;;2.78;;
52978;SDS011;51106;53.186;6.598;2022-08-11T13:08:53;4.03;;;2.30;;
52978;SDS011;51106;53.186;6.598;2022-08-11T13:11:02;5.10;;;2.35;;
52978;SDS011;51106;53.186;6.598;2022-08-11T13:13:24;54.17;;;4.55;;
52978;SDS011;51106;53.186;6.598;2022-08-11T13:15:47;8.45;;;2.47;;
52978;SDS011;51106;53.186;6.598;2022-08-11T13:17:50;5.75;;;2.08;;
52978;SDS011;51106;53.186;6.598;2022-08-11T13:19:56;3.92;;;2.05;;
52978;SDS011;51106;53.186;6.598;2022-08-11T13:21:59;5.78;;;2.30;;
52978;SDS011;51106;53.186;6.598;2022-08-11T13:24:03;6.20;;;2.20;;
52978;SDS011;51106;53.186;6.598;2022-08-11T13:26:06;4.55;;;2.25;;
52978;SDS011;51106;53.186;6.598;2022-08-11T13:28:09;2.30;;;2.10;;
52978;SDS011;51106;53.186;6.598;2022-08-11T13:30:13;2.70;;;2.10;;
52978;SDS011;51106;53.186;6.598;2022-08-11T13:32:40;3.03;;;2.00;;
52978;SDS011;51106;53.186;6.598;2022-08-11T13:34:45;2.97;;;2.00;;
52978;SDS011;51106;53.186;6.598;2022-08-11T13:36:49;3.33;;;2.00;;
52978;SDS011;51106;53.186;6.598;2022-08-11T13:38:54;3.03;;;2.20;;
52978;SDS011;51106;53.186;6.598;2022-08-11T13:40:58;2.75;;;2.08;;
52978;SDS011;51106;53.186;6.598;2022-08-11T13:43:01;4.20;;;2.23;;
52978;SDS011;51106;53.186;6.598;2022-08-11T13:45:04;3.93;;;1.90;;
52978;SDS011;51106;53.186;6.598;2022-08-11T13:47:08;2.95;;;2.00;;
52978;SDS011;51106;53.186;6.598;2022-08-11T13:49:15;3.55;;;2.38;;
52978;SDS011;51106;53.186;6.598;2022-08-11T13:51:19;2.78;;;1.90;;
52978;SDS011;51106;53.186;6.598;2022-08-11T13:53:35;6.18;;;2.05;;
52978;SDS011;51106;53.186;6.598;2022-08-11T13:55:40;3.55;;;2.00;;
52978;SDS011;51106;53.186;6.598;2022-08-11T13:57:52;4.47;;;2.13;;
52978;SDS011;51106;53.186;6.598;2022-08-11T14:00:15;6.45;;;2.30;;
52978;SDS011;51106;53.186;6.598;2022-08-11T14:02:28;2.70;;;2.00;;
52978;SDS011;51106;53.186;6.598;2022-08-11T14:04:37;5.30;;;1.90;;
52978;SDS011;51106;53.186;6.598;2022-08-11T14:06:41;5.65;;;2.13;;
52978;SDS011;51106;53.186;6.598;2022-08-11T14:08:49;3.85;;;2.00;;
52978;SDS011;51106;53.186;6.598;2022-08-11T14:10:54;4.82;;;2.20;;
52978;SDS011;51106;53.186;6.598;2022-08-11T14:13:41;3.75;;;2.20;;
52978;SDS011;51106;53.186;6.598;2022-08-11T14:15:48;5.57;;;2.10;;
52978;SDS011;51106;53.186;6.598;2022-08-11T14:18:00;3.03;;;1.90;;
52978;SDS011;51106;53.186;6.598;2022-08-11T14:20:07;4.85;;;2.05;;
52978;SDS011;51106;53.186;6.598;2022-08-11T14:24:41;7.20;;;2.20;;
52978;SDS011;51106;53.186;6.598;2022-08-11T14:26:44;4.47;;;2.10;;
52978;SDS011;51106;53.186;6.598;2022-08-11T14:28:50;5.07;;;2.00;;
52978;SDS011;51106;53.186;6.598;2022-08-11T14:30:55;3.97;;;1.95;;
52978;SDS011;51106;53.186;6.598;2022-08-11T14:33:02;9.32;;;2.22;;
52978;SDS011;51106;53.186;6.598;2022-08-11T14:35:17;6.20;;;2.17;;
52978;SDS011;51106;53.186;6.598;2022-08-11T14:37:21;3.22;;;2.15;;
52978;SDS011;51106;53.186;6.598;2022-08-11T14:39:29;5.93;;;2.22;;
52978;SDS011;51106;53.186;6.598;2022-08-11T14:41:42;5.65;;;2.30;;
52978;SDS011;51106;53.186;6.598;2022-08-11T14:44:13;4.78;;;2.13;;
52978;SDS011;51106;53.186;6.598;2022-08-11T14:46:34;6.78;;;2.28;;
52978;SDS011;51106;53.186;6.598;2022-08-11T14:48:55;5.10;;;2.20;;
52978;SDS011;51106;53.186;6.598;2022-08-11T14:50:58;4.60;;;2.50;;
52978;SDS011;51106;53.186;6.598;2022-08-11T14:53:07;6.30;;;2.33;;
52978;SDS011;51106;53.186;6.598;2022-08-11T14:55:18;5.47;;;2.42;;
52978;SDS011;51106;53.186;6.598;2022-08-11T14:57:40;5.30;;;2.22;;
52978;SDS011;51106;53.186;6.598;2022-08-11T14:59:57;5.10;;;2.42;;
52978;SDS011;51106;53.186;6.598;2022-08-11T15:02:04;3.80;;;2.20;;
52978;SDS011;51106;53.186;6.598;2022-08-11T15:04:25;4.70;;;2.03;;
52978;SDS011;51106;53.186;6.598;2022-08-11T15:06:36;3.50;;;2.28;;
52978;SDS011;51106;53.186;6.598;2022-08-11T15:08:38;3.00;;;2.30;;
52978;SDS011;51106;53.186;6.598;2022-08-11T15:10:56;2.72;;;2.28;;
52978;SDS011;51106;53.186;6.598;2022-08-11T15:12:59;3.88;;;2.30;;
52978;SDS011;51106;53.186;6.598;2022-08-11T15:15:02;4.87;;;2.80;;
52978;SDS011;51106;53.186;6.598;2022-08-11T15:17:25;3.63;;;2.38;;
52978;SDS011;51106;53.186;6.598;2022-08-11T15:19:46;6.32;;;2.40;;
52978;SDS011;51106;53.186;6.598;2022-08-11T15:22:08;5.13;;;2.22;;
52978;SDS011;51106;53.186;6.598;2022-08-11T15:24:29;4.30;;;2.28;;
52978;SDS011;51106;53.186;6.598;2022-08-11T15:26:38;9.32;;;2.60;;
52978;SDS011;51106;53.186;6.598;2022-08-11T15:29:00;3.53;;;2.20;;
52978;SDS011;51106;53.186;6.598;2022-08-11T15:31:24;2.70;;;1.93;;
52978;SDS011;51106;53.186;6.598;2022-08-11T15:33:50;3.47;;;2.00;;
52978;SDS011;51106;53.186;6.598;2022-08-11T15:36:18;3.10;;;2.17;;
52978;SDS011;51106;53.186;6.598;2022-08-11T15:38:41;2.83;;;1.98;;
52978;SDS011;51106;53.186;6.598;2022-08-11T15:40:55;4.53;;;2.40;;
52978;SDS011;51106;53.186;6.598;2022-08-11T15:43:21;3.05;;;2.40;;
52978;SDS011;51106;53.186;6.598;2022-08-11T15:45:46;3.53;;;2.08;;
52978;SDS011;51106;53.186;6.598;2022-08-11T15:47:55;4.70;;;2.50;;
52978;SDS011;51106;53.186;6.598;2022-08-11T15:50:06;6.13;;;2.40;;
52978;SDS011;51106;53.186;6.598;2022-08-11T15:52:18;5.10;;;2.35;;
52978;SDS011;51106;53.186;6.598;2022-08-11T15:54:26;4.07;;;2.47;;
52978;SDS011;51106;53.186;6.598;2022-08-11T15:56:32;5.20;;;2.60;;
52978;SDS011;51106;53.186;6.598;2022-08-11T15:58:39;5.03;;;2.20;;
52978;SDS011;51106;53.186;6.598;2022-08-11T16:01:28;6.15;;;2.30;;
52978;SDS011;51106;53.186;6.598;2022-08-11T16:03:51;6.03;;;2.47;;
52978;SDS011;51106;53.186;6.598;2022-08-11T16:06:13;4.90;;;2.58;;
52978;SDS011;51106;53.186;6.598;2022-08-11T16:08:18;6.70;;;2.45;;
52978;SDS011;51106;53.186;6.598;2022-08-11T16:10:37;4.65;;;2.40;;
52978;SDS011;51106;53.186;6.598;2022-08-11T16:12:46;5.88;;;2.42;;
52978;SDS011;51106;53.186;6.598;2022-08-11T16:15:15;6.72;;;2.45;;
52978;SDS011;51106;53.186;6.598;2022-08-11T16:17:37;4.75;;;2.60;;
52978;SDS011;51106;53.186;6.598;2022-08-11T16:19:49;9.65;;;2.40;;
52978;SDS011;51106;53.186;6.598;2022-08-11T16:21:54;5.70;;;2.55;;
52978;SDS011;51106;53.186;6.598;2022-08-11T16:23:57;3.25;;;2.28;;
52978;SDS011;51106;53.186;6.598;2022-08-11T16:26:01;4.63;;;2.25;;
52978;SDS011;51106;53.186;6.598;2022-08-11T16:28:26;4.60;;;2.22;;
52978;SDS011;51106;53.186;6.598;2022-08-11T16:30:35;5.15;;;2.65;;
52978;SDS011;51106;53.186;6.598;2022-08-11T16:32:41;4.85;;;2.50;;
52978;SDS011;51106;53.186;6.598;2022-08-11T16:34:51;4.40;;;2.65;;
52978;SDS011;51106;53.186;6.598;2022-08-11T16:37:14;6.43;;;2.58;;
52978;SDS011;51106;53.186;6.598;2022-08-11T16:39:37;4.43;;;2.20;;
52978;SDS011;51106;53.186;6.598;2022-08-11T16:41:48;11.13;;;2.47;;
52978;SDS011;51106;53.186;6.598;2022-08-11T16:44:32;6.20;;;2.80;;
52978;SDS011;51106;53.186;6.598;2022-08-11T16:46:58;3.97;;;2.42;;
52978;SDS011;51106;53.186;6.598;2022-08-11T16:49:11;4.95;;;2.60;;
52978;SDS011;51106;53.186;6.598;2022-08-11T16:51:17;4.40;;;2.50;;
52978;SDS011;51106;53.186;6.598;2022-08-11T16:53:21;3.67;;;2.33;;
52978;SDS011;51106;53.186;6.598;2022-08-11T16:55:46;4.45;;;2.55;;
52978;SDS011;51106;53.186;6.598;2022-08-11T16:57:53;9.95;;;2.42;;